createdAt,value
2019-03-22T00:01:47.522Z,4.60
2019-03-22T00:04:32.126Z,4.40
2019-03-22T00:07:03.956Z,4.30
2019-03-22T00:09:36.137Z,4.40
2019-03-22T00:12:19.572Z,4.30
2019-03-22T00:14:51.556Z,4.20
2019-03-22T00:17:23.248Z,4.30
2019-03-22T00:19:59.722Z,4.30
2019-03-22T00:22:32.130Z,4.30
2019-03-22T00:25:03.992Z,4.30
2019-03-22T00:27:35.760Z,4.40
2019-03-22T00:36:33.505Z,4.20
2019-03-22T00:39:06.970Z,4.20
2019-03-22T00:41:38.786Z,4.20
2019-03-22T00:47:01.089Z,4.20
2019-03-22T00:49:33.010Z,4.20
2019-03-22T00:52:04.946Z,4.10
2019-03-22T00:54:36.593Z,3.90
2019-03-22T00:57:11.378Z,3.90
2019-03-22T00:59:44.229Z,3.70
2019-03-22T01:02:15.960Z,3.70
2019-03-22T01:04:47.558Z,3.60
2019-03-22T01:07:19.576Z,3.30
2019-03-22T01:09:51.200Z,3.20
2019-03-22T01:12:41.859Z,3.30
2019-03-22T01:15:13.768Z,3.40
2019-03-22T01:17:45.502Z,3.40
2019-03-22T01:20:17.558Z,3.40
2019-03-22T01:22:49.192Z,3.50
2019-03-22T01:25:21.386Z,3.50
2019-03-22T01:27:55.988Z,3.50
2019-03-22T01:30:28.003Z,3.30
2019-03-22T01:33:05.594Z,3.40
2019-03-22T01:42:13.634Z,3.50
2019-03-22T01:44:47.457Z,3.50
2019-03-22T01:47:19.376Z,3.50
2019-03-22T01:49:51.103Z,3.40
2019-03-22T01:52:23.080Z,3.00
2019-03-22T01:55:13.486Z,3.00
2019-03-22T01:57:53.686Z,2.90
2019-03-22T02:00:21.710Z,2.80
2019-03-22T02:02:53.346Z,2.80
2019-03-22T02:05:26.360Z,2.80
2019-03-22T02:07:58.080Z,2.70
2019-03-22T02:10:30.296Z,2.80
2019-03-22T02:13:04.796Z,2.90
2019-03-22T02:16:00.642Z,2.90
2019-03-22T02:18:32.437Z,2.90
2019-03-22T02:21:06.188Z,3.00
2019-03-22T02:23:38.700Z,3.00
2019-03-22T02:26:10.352Z,3.00
2019-03-22T02:28:43.483Z,3.00
2019-03-22T02:31:15.225Z,2.80
2019-03-22T02:33:46.934Z,2.80
2019-03-22T02:36:18.572Z,2.70
2019-03-22T02:38:50.522Z,2.60
2019-03-22T02:41:24.293Z,2.60
2019-03-22T02:43:56.140Z,2.70
2019-03-22T02:46:27.933Z,2.80
2019-03-22T02:52:35.921Z,2.80
2019-03-22T02:55:09.172Z,2.80
2019-03-22T02:57:41.292Z,2.80
2019-03-22T03:00:17.401Z,2.70
2019-03-22T03:02:49.120Z,2.80
2019-03-22T03:05:20.789Z,2.70
2019-03-22T03:07:52.731Z,2.40
2019-03-22T03:10:24.541Z,2.20
2019-03-22T03:12:56.263Z,2.10
2019-03-22T03:15:27.905Z,2.00
2019-03-22T03:18:00.201Z,2.00
2019-03-22T03:20:31.806Z,2.10
2019-03-22T03:29:27.271Z,2.20
2019-03-22T03:31:59.298Z,2.30
2019-03-22T03:34:30.990Z,2.40
2019-03-22T03:37:02.694Z,2.40
2019-03-22T03:39:34.558Z,2.50
2019-03-22T03:54:33.807Z,2.50
2019-03-22T03:57:05.553Z,2.50
2019-03-22T03:59:37.452Z,2.40
2019-03-22T04:02:09.561Z,2.30
2019-03-22T04:11:30.278Z,1.80
2019-03-22T04:14:03.489Z,1.90
2019-03-22T04:16:35.137Z,1.80
2019-03-22T04:19:06.806Z,1.90
2019-03-22T04:21:45.268Z,1.90
2019-03-22T04:24:16.925Z,1.90
2019-03-22T04:27:19.149Z,1.90
2019-03-22T04:29:50.879Z,2.10
2019-03-22T04:32:23.600Z,2.00
2019-03-22T04:34:55.422Z,2.00
2019-03-22T04:37:27.417Z,2.00
2019-03-22T04:42:43.587Z,2.10
2019-03-22T04:58:12.261Z,2.20
2019-03-22T05:00:44.918Z,2.10
2019-03-22T05:03:18.129Z,2.10
2019-03-22T05:06:00.692Z,2.10
2019-03-22T05:08:35.251Z,2.10
2019-03-22T05:11:23.904Z,2.10
2019-03-22T05:13:59.114Z,2.00
2019-03-22T05:16:32.424Z,2.00
2019-03-22T05:19:07.220Z,2.00
2019-03-22T05:21:39.964Z,2.00
2019-03-22T05:24:13.057Z,2.00
2019-03-22T05:26:47.702Z,1.80
2019-03-22T05:29:31.069Z,1.30
2019-03-22T05:32:13.424Z,1.30
2019-03-22T05:34:45.208Z,1.40
2019-03-22T05:37:16.888Z,1.50
2019-03-22T05:40:20.116Z,1.50
2019-03-22T05:46:15.957Z,1.70
2019-03-22T05:48:48.048Z,1.70
2019-03-22T05:51:20.075Z,1.70
2019-03-22T05:53:52.412Z,1.80
2019-03-22T05:56:24.321Z,1.70
2019-03-22T06:09:03.754Z,2.00
2019-03-22T06:11:35.728Z,2.00
2019-03-22T06:14:07.468Z,2.00
2019-03-22T06:16:39.098Z,2.00
2019-03-22T06:22:49.932Z,2.00
2019-03-22T06:25:22.177Z,2.10
2019-03-22T06:57:34.789Z,2.70
2019-03-22T07:00:07.589Z,2.90
2019-03-22T07:18:55.041Z,3.00
2019-03-22T07:49:15.524Z,4.10
2019-03-22T07:58:25.504Z,3.90
2019-03-22T08:07:34.242Z,4.80
2019-03-22T08:10:07.521Z,5.00
2019-03-22T08:12:40.744Z,5.10
2019-03-22T08:32:27.719Z,5.90
2019-03-22T08:54:28.816Z,7.00
2019-03-22T08:57:00.530Z,7.20
2019-03-22T08:59:53.332Z,7.40
2019-03-22T09:17:52.048Z,8.40
2019-03-22T09:24:04.520Z,8.70
2019-03-22T09:26:47.028Z,8.50
2019-03-22T09:35:58.703Z,9.40
2019-03-22T09:48:55.854Z,10.30
2019-03-22T09:51:44.654Z,10.00
2019-03-22T10:07:19.177Z,10.70
2019-03-22T10:09:51.143Z,10.70
2019-03-22T10:30:36.123Z,12.00
2019-03-22T10:33:07.977Z,12.00
2019-03-22T10:35:51.074Z,12.10
2019-03-22T10:48:13.922Z,13.60
2019-03-22T11:00:52.460Z,15.20
2019-03-22T11:03:41.470Z,15.40
2019-03-22T11:06:30.838Z,15.70
2019-03-22T11:09:15.324Z,16.00
2019-03-22T11:11:47.539Z,15.50
2019-03-22T11:21:13.224Z,15.40
2019-03-22T11:23:45.315Z,15.40
2019-03-22T11:26:16.937Z,15.80
2019-03-22T11:41:50.473Z,16.80
2019-03-22T11:48:10.504Z,16.90
2019-03-22T11:54:24.456Z,17.70
2019-03-22T11:56:56.309Z,18.00
2019-03-22T11:59:27.936Z,17.90
2019-03-22T12:01:59.568Z,18.70
2019-03-22T12:04:31.284Z,19.00
2019-03-22T12:10:27.786Z,17.40
2019-03-22T12:13:10.565Z,16.20
2019-03-22T12:15:43.508Z,17.50
2019-03-22T12:18:15.197Z,18.30
2019-03-22T12:31:00.568Z,20.00
2019-03-22T12:33:32.486Z,19.30
2019-03-22T12:36:04.242Z,19.30
2019-03-22T12:56:00.575Z,20.50
2019-03-22T13:02:13.615Z,21.10
2019-03-22T13:11:23.418Z,20.90
2019-03-22T13:17:31.200Z,21.60
2019-03-22T13:35:44.172Z,22.70
2019-03-22T13:38:29.440Z,22.90
2019-03-22T13:41:01.215Z,23.40
2019-03-22T13:43:32.886Z,24.00
2019-03-22T13:46:04.532Z,24.00
2019-03-22T13:55:55.290Z,24.80
2019-03-22T14:05:05.849Z,24.40
2019-03-22T14:07:49.464Z,24.50
2019-03-22T14:50:52.351Z,24.00
2019-03-22T14:53:24.473Z,24.60
2019-03-22T14:55:56.600Z,24.50
2019-03-22T15:01:56.240Z,23.00
2019-03-22T15:24:03.902Z,24.60
2019-03-22T16:01:46.885Z,24.00
2019-03-22T16:14:26.270Z,23.60
2019-03-22T16:27:06.544Z,22.70
2019-03-22T16:42:08.248Z,22.40
2019-03-22T17:04:09.890Z,28.80
2019-03-22T17:16:42.818Z,26.90
2019-03-22T17:19:14.427Z,26.20
2019-03-22T17:21:46.084Z,25.60
2019-03-22T17:24:17.682Z,24.40
2019-03-22T17:26:49.386Z,23.90
2019-03-22T17:29:21.164Z,23.10
2019-03-22T17:31:52.863Z,22.10
2019-03-22T17:34:24.576Z,21.10
2019-03-22T17:36:56.340Z,20.30
2019-03-22T17:39:31.855Z,19.70
2019-03-22T17:42:03.483Z,19.20
2019-03-22T17:44:35.646Z,18.80
2019-03-22T17:47:07.340Z,18.50
2019-03-22T17:49:47.814Z,18.30
2019-03-22T17:52:12.318Z,18.10
2019-03-22T17:54:44.152Z,18.10
2019-03-22T17:57:18.913Z,17.80
2019-03-22T17:59:50.104Z,17.50
2019-03-22T18:02:21.780Z,17.10
2019-03-22T18:04:53.528Z,16.90
2019-03-22T18:07:25.612Z,16.70
2019-03-22T18:09:58.223Z,16.50
2019-03-22T18:12:29.851Z,16.20
2019-03-22T18:15:02.080Z,16.00
2019-03-22T18:17:45.794Z,15.70
2019-03-22T18:20:17.778Z,15.60
2019-03-22T18:22:49.804Z,15.60
2019-03-22T18:25:21.786Z,15.50
2019-03-22T18:27:53.624Z,15.50
2019-03-22T18:30:25.679Z,15.50
2019-03-22T18:32:57.343Z,15.40
2019-03-22T18:35:29.040Z,15.30
2019-03-22T18:38:00.910Z,15.20
2019-03-22T18:40:33.051Z,15.10
2019-03-22T18:43:04.728Z,14.90
2019-03-22T18:45:36.381Z,14.80
2019-03-22T18:48:08.008Z,14.70
2019-03-22T18:50:39.666Z,14.70
2019-03-22T18:53:11.256Z,14.60
2019-03-22T18:55:42.897Z,14.60
2019-03-22T18:58:14.520Z,14.50
2019-03-22T19:00:49.557Z,14.60
2019-03-22T19:03:20.679Z,14.50
2019-03-22T19:05:52.452Z,14.30
2019-03-22T19:08:24.063Z,14.10
2019-03-22T19:10:55.700Z,13.90
2019-03-22T19:13:30.899Z,13.70
2019-03-22T19:16:02.054Z,13.50
2019-03-22T19:18:33.852Z,13.40
2019-03-22T19:21:05.542Z,13.40
2019-03-22T19:23:37.166Z,13.40
2019-03-22T19:26:10.991Z,13.40
2019-03-22T19:28:42.620Z,13.40
2019-03-22T19:31:14.368Z,13.10
2019-03-22T19:33:57.422Z,12.90
2019-03-22T19:36:29.064Z,12.70
2019-03-22T19:39:00.706Z,12.70
2019-03-22T19:41:34.102Z,12.60
2019-03-22T19:44:05.727Z,12.60
2019-03-22T19:46:37.432Z,12.50
2019-03-22T19:49:09.110Z,12.50
2019-03-22T19:51:40.737Z,12.50
2019-03-22T19:54:12.380Z,12.40
2019-03-22T19:56:43.986Z,12.40
2019-03-22T19:59:15.704Z,12.50
2019-03-22T20:01:47.336Z,12.50
2019-03-22T20:04:19.033Z,12.50
2019-03-22T20:06:50.758Z,12.50
2019-03-22T20:09:22.492Z,12.40
2019-03-22T20:12:05.665Z,12.30
2019-03-22T20:14:37.606Z,12.20
2019-03-22T20:17:09.213Z,12.10
2019-03-22T20:19:40.852Z,11.90
2019-03-22T20:22:12.548Z,11.80
2019-03-22T20:24:44.194Z,11.70
2019-03-22T20:27:15.918Z,11.50
2019-03-22T20:29:47.775Z,11.30
2019-03-22T20:32:19.740Z,11.40
2019-03-22T20:34:51.440Z,11.40
2019-03-22T20:37:23.201Z,11.30
2019-03-22T20:39:54.848Z,11.40
2019-03-22T20:42:26.544Z,11.40
2019-03-22T20:44:58.195Z,11.40
2019-03-22T20:47:29.814Z,11.40
2019-03-22T20:50:01.567Z,11.30
2019-03-22T20:52:33.276Z,11.40
2019-03-22T20:55:07.211Z,11.40
2019-03-22T20:57:38.760Z,11.40
2019-03-22T21:00:10.904Z,11.30
2019-03-22T21:02:42.586Z,11.30
2019-03-22T21:05:14.252Z,11.20
2019-03-22T21:07:45.984Z,11.20
2019-03-22T21:10:17.670Z,11.20
2019-03-22T21:12:49.384Z,11.20
2019-03-22T21:15:24.680Z,11.00
2019-03-22T21:17:54.341Z,10.80
2019-03-22T21:20:26.113Z,10.60
2019-03-22T21:22:57.692Z,10.40
2019-03-22T21:25:29.325Z,10.20
2019-03-22T21:28:03.747Z,10.10
2019-03-22T21:30:34.915Z,10.00
2019-03-22T21:33:06.721Z,10.00
2019-03-22T21:35:38.539Z,9.90
2019-03-22T21:38:11.280Z,9.80
2019-03-22T21:40:43.390Z,9.70
2019-03-22T21:43:15.010Z,9.60
2019-03-22T21:45:46.649Z,9.50
2019-03-22T21:48:18.330Z,9.40
2019-03-22T21:50:50.003Z,9.40
2019-03-22T21:53:21.632Z,9.40
2019-03-22T21:55:54.331Z,9.40
2019-03-22T21:58:26.308Z,9.20
2019-03-22T22:00:57.906Z,9.20
2019-03-22T22:03:29.517Z,9.10
2019-03-22T22:06:01.122Z,9.10
2019-03-22T22:08:32.801Z,9.10
2019-03-22T22:11:04.391Z,9.10
2019-03-22T22:13:35.988Z,9.10
2019-03-22T22:16:07.652Z,9.00
2019-03-22T22:18:39.358Z,9.10
2019-03-22T22:21:11.058Z,9.10
2019-03-22T22:23:42.723Z,9.10
2019-03-22T22:26:14.342Z,9.00
2019-03-22T22:28:45.942Z,8.90
2019-03-22T22:31:17.720Z,8.90
2019-03-22T22:33:49.594Z,8.80
2019-03-22T22:36:21.315Z,8.70
2019-03-22T22:38:52.958Z,8.60
2019-03-22T22:41:24.735Z,8.50
2019-03-22T22:43:56.340Z,8.50
2019-03-22T22:46:27.990Z,8.40
2019-03-22T22:48:59.648Z,8.40
2019-03-22T22:51:31.365Z,8.30
2019-03-22T22:54:03.019Z,8.30
2019-03-22T22:56:34.659Z,8.20
2019-03-22T22:59:06.254Z,8.10
2019-03-22T23:01:37.887Z,8.10
2019-03-22T23:04:09.519Z,7.90
2019-03-22T23:06:41.218Z,8.00
2019-03-22T23:09:12.850Z,8.10
2019-03-22T23:11:44.531Z,8.60
2019-03-22T23:14:17.980Z,8.20
2019-03-22T23:16:50.053Z,8.10
2019-03-22T23:19:21.679Z,8.10
2019-03-22T23:21:53.325Z,8.10
2019-03-22T23:24:24.968Z,8.10
2019-03-22T23:26:56.664Z,8.10
2019-03-22T23:29:28.371Z,8.10
2019-03-22T23:32:00.023Z,8.10
2019-03-22T23:34:32.092Z,8.00
2019-03-22T23:37:03.713Z,8.00
2019-03-22T23:39:35.804Z,8.00
2019-03-22T23:42:07.747Z,7.90
2019-03-22T23:44:39.535Z,7.70
2019-03-22T23:47:11.575Z,7.70
2019-03-22T23:49:43.276Z,7.60
2019-03-22T23:52:15.003Z,7.70
2019-03-22T23:54:46.603Z,7.80
2019-03-22T23:57:18.339Z,7.80
2019-03-22T23:59:49.991Z,7.80
